createdAt,value
2019-04-11T00:02:24.917Z,102446.48
2019-04-11T00:04:54.708Z,102445.20
2019-04-11T00:07:24.552Z,102451.27
2019-04-11T00:09:54.655Z,102334.41
2019-04-11T00:12:24.319Z,102459.14
2019-04-11T00:14:53.955Z,102460.05
2019-04-11T00:17:23.174Z,102467.02
2019-04-11T00:19:53.748Z,102464.45
2019-04-11T00:22:23.641Z,102463.39
2019-04-11T00:24:53.532Z,102460.81
2019-04-11T00:27:22.715Z,102465.44
2019-04-11T00:29:51.919Z,102466.96
2019-04-11T00:32:21.436Z,102470.30
2019-04-11T00:34:51.166Z,102469.01
2019-04-11T00:37:21.085Z,102474.69
2019-04-11T00:39:52.037Z,102472.88
2019-04-11T00:42:22.776Z,102474.92
2019-04-11T00:44:52.331Z,102476.97
2019-04-11T00:47:22.677Z,102483.57
2019-04-11T00:49:51.957Z,102480.61
2019-04-11T00:52:21.362Z,102482.13
2019-04-11T00:54:51.152Z,102489.25
2019-04-11T00:57:21.066Z,102489.25
2019-04-11T00:59:50.949Z,102492.59
2019-04-11T01:02:21.088Z,102493.12
2019-04-11T01:04:50.879Z,102490.69
2019-04-11T01:07:20.451Z,102498.19
2019-04-11T01:09:50.706Z,102494.09
2019-04-11T01:12:20.630Z,102500.69
2019-04-11T01:14:51.147Z,102499.93
2019-04-11T01:17:21.243Z,102500.08
2019-04-11T01:19:51.139Z,102498.26
2019-04-11T01:22:20.739Z,102496.06
2019-04-11T01:24:50.321Z,102493.86
2019-04-11T01:27:19.862Z,102493.03
2019-04-11T01:29:49.935Z,102491.98
2019-04-11T01:32:20.266Z,102493.88
2019-04-11T01:34:49.435Z,102495.70
2019-04-11T01:37:19.650Z,102498.80
2019-04-11T01:39:55.736Z,102499.71
2019-04-11T01:42:25.130Z,102501.77
2019-04-11T01:44:54.800Z,102505.78
2019-04-11T01:47:39.849Z,102507.67
2019-04-11T01:50:10.558Z,102509.50
2019-04-11T01:52:40.110Z,102507.30
2019-04-11T01:55:10.292Z,102505.63
2019-04-11T01:57:40.252Z,102501.61
2019-04-11T02:00:12.851Z,102514.20
2019-04-11T02:02:52.948Z,102516.62
2019-04-11T02:05:29.461Z,102511.02
2019-04-11T02:07:58.793Z,102517.70
2019-04-11T02:10:28.706Z,102506.33
2019-04-11T02:12:59.638Z,102511.63
2019-04-11T02:15:30.372Z,102513.30
2019-04-11T02:18:01.348Z,102516.03
2019-04-11T02:20:31.232Z,102510.12
2019-04-11T02:23:15.388Z,102512.16
2019-04-11T02:25:56.603Z,102512.31
2019-04-11T02:28:25.947Z,102518.91
2019-04-11T02:30:56.610Z,102516.33
2019-04-11T02:33:26.912Z,102512.55
2019-04-11T02:35:57.214Z,102524.14
2019-04-11T02:38:28.285Z,102520.35
2019-04-11T02:40:57.977Z,102528.62
2019-04-11T02:43:27.805Z,102533.77
2019-04-11T02:46:10.043Z,102534.53
2019-04-11T02:48:28.845Z,102527.94
2019-04-11T02:50:58.513Z,102530.89
2019-04-11T02:53:29.926Z,102538.24
2019-04-11T02:56:00.652Z,102530.89
2019-04-11T02:58:31.769Z,102536.95
2019-04-11T03:01:05.038Z,102534.38
2019-04-11T03:03:34.086Z,102536.58
2019-04-11T03:06:04.459Z,102535.28
2019-04-11T03:08:36.305Z,102531.27
2019-04-11T03:11:07.731Z,102534.75
2019-04-11T03:13:38.360Z,102532.18
2019-04-11T03:16:24.007Z,102537.86
2019-04-11T03:18:54.857Z,102538.63
2019-04-11T03:21:14.584Z,102540.82
2019-04-11T03:23:41.751Z,102538.77
2019-04-11T03:26:14.149Z,102539.91
2019-04-11T03:28:47.528Z,102542.11
2019-04-11T03:31:58.296Z,102544.45
2019-04-11T03:34:38.478Z,102546.13
2019-04-11T03:37:08.557Z,102542.79
2019-04-11T03:39:11.624Z,102539.83
2019-04-11T03:41:39.983Z,102534.83
2019-04-11T03:44:01.929Z,102542.56
2019-04-11T03:46:38.456Z,102543.85
2019-04-11T03:49:03.821Z,102546.28
2019-04-11T03:51:27.629Z,102551.05
2019-04-11T03:53:58.902Z,102548.47
2019-04-11T03:56:28.752Z,102548.32
2019-04-11T03:58:58.548Z,102552.72
2019-04-11T04:01:29.639Z,102553.09
2019-04-11T04:04:00.620Z,102558.78
2019-04-11T04:06:31.062Z,102555.67
2019-04-11T04:09:02.798Z,102555.83
2019-04-11T04:11:34.718Z,102557.12
2019-04-11T04:14:21.819Z,102559.70
2019-04-11T04:17:04.176Z,102557.12
2019-04-11T04:19:51.806Z,102559.70
2019-04-11T04:22:33.069Z,102566.97
2019-04-11T04:25:04.285Z,102568.64
2019-04-11T04:27:34.804Z,102563.48
2019-04-11T04:30:06.065Z,102565.83
2019-04-11T04:32:36.290Z,102563.41
2019-04-11T04:35:10.461Z,102566.52
2019-04-11T04:37:38.618Z,102572.20
2019-04-11T04:40:23.287Z,102574.93
2019-04-11T04:42:46.675Z,102572.27
2019-04-11T04:45:14.664Z,102578.64
2019-04-11T04:47:48.974Z,102577.27
2019-04-11T04:50:14.516Z,102586.75
2019-04-11T04:52:44.996Z,102586.75
2019-04-11T04:55:14.289Z,102589.25
2019-04-11T04:57:44.969Z,102586.59
2019-04-11T05:00:15.117Z,102588.41
2019-04-11T05:02:44.694Z,102595.77
2019-04-11T05:05:14.137Z,102595.66
2019-04-11T05:07:46.264Z,102597.24
2019-04-11T05:10:15.433Z,102596.78
2019-04-11T05:12:46.098Z,102601.33
2019-04-11T05:15:16.653Z,102601.93
2019-04-11T05:17:46.780Z,102605.72
2019-04-11T05:20:16.403Z,102606.02
2019-04-11T05:22:45.635Z,102606.61
2019-04-11T05:25:14.913Z,102611.08
2019-04-11T05:27:45.358Z,102611.98
2019-04-11T05:30:14.910Z,102609.47
2019-04-11T05:32:45.187Z,102613.78
2019-04-11T05:35:14.455Z,102612.17
2019-04-11T05:37:43.701Z,102614.73
2019-04-11T05:40:13.143Z,102615.64
2019-04-11T05:42:42.341Z,102615.55
2019-04-11T05:45:17.328Z,102620.39
2019-04-11T05:47:43.501Z,102616.28
2019-04-11T05:50:26.269Z,102617.34
2019-04-11T05:52:56.711Z,102626.44
2019-04-11T05:55:27.981Z,102620.27
2019-04-11T05:57:58.932Z,102619.94
2019-04-11T06:00:47.159Z,102619.23
2019-04-11T06:03:17.669Z,102617.17
2019-04-11T06:06:18.409Z,102622.11
2019-04-11T06:08:48.294Z,102624.45
2019-04-11T06:11:28.647Z,102625.80
2019-04-11T06:14:13.108Z,102632.30
2019-04-11T06:16:50.300Z,102626.42
2019-04-11T06:19:33.598Z,102622.36
2019-04-11T06:22:08.661Z,102625.03
2019-04-11T06:24:56.517Z,102632.30
2019-04-11T06:27:30.460Z,102630.01
2019-04-11T06:30:17.961Z,102634.80
2019-04-11T06:33:06.406Z,102639.05
2019-04-11T06:35:57.769Z,102635.70
2019-04-11T06:38:58.679Z,102619.96
2019-04-11T06:41:36.811Z,102643.50
2019-04-11T06:44:28.006Z,102608.62
2019-04-11T06:47:08.291Z,102528.64
2019-04-11T06:50:00.506Z,102646.45
2019-04-11T06:52:29.970Z,102521.66
2019-04-11T06:55:27.418Z,102649.69
2019-04-11T06:58:10.779Z,102651.05
2019-04-11T07:00:42.159Z,102656.14
2019-04-11T07:03:19.597Z,102653.63
2019-04-11T07:05:43.644Z,102656.87
2019-04-11T07:08:16.054Z,102667.51
2019-04-11T07:10:51.113Z,102663.90
2019-04-11T07:13:43.367Z,102669.98
2019-04-11T07:16:13.355Z,102680.86
2019-04-11T07:19:00.636Z,102685.66
2019-04-11T07:21:35.406Z,102686.66
2019-04-11T07:24:22.754Z,102688.31
2019-04-11T07:26:58.815Z,102692.16
2019-04-11T07:29:59.613Z,102687.65
2019-04-11T07:32:29.971Z,102689.38
2019-04-11T07:35:27.747Z,102689.92
2019-04-11T07:37:58.289Z,102690.92
2019-04-11T07:40:56.240Z,102689.84
2019-04-11T07:43:29.206Z,102686.30
2019-04-11T07:46:25.119Z,102683.55
2019-04-11T07:49:03.837Z,102684.88
2019-04-11T07:51:36.302Z,102688.04
2019-04-11T07:54:11.899Z,102676.05
2019-04-11T07:57:04.022Z,102687.70
2019-04-11T07:59:49.055Z,102680.02
2019-04-11T08:02:37.618Z,102685.87
2019-04-11T08:05:27.733Z,102689.50
2019-04-11T08:08:17.603Z,102693.03
2019-04-11T08:10:56.715Z,102692.20
2019-04-11T08:13:34.559Z,102679.70
2019-04-11T08:16:22.376Z,102690.34
2019-04-11T08:19:09.782Z,102695.22
2019-04-11T08:21:56.757Z,102695.67
2019-04-11T08:24:32.767Z,102695.13
2019-04-11T08:27:19.750Z,102692.82
2019-04-11T08:29:51.615Z,102696.78
2019-04-11T08:32:40.252Z,102698.96
2019-04-11T08:35:36.650Z,102694.85
2019-04-11T08:38:09.938Z,102699.47
2019-04-11T08:40:49.173Z,102704.52
2019-04-11T08:43:23.399Z,102590.62
2019-04-11T08:46:03.240Z,102698.58
2019-04-11T08:48:35.163Z,102711.70
2019-04-11T08:51:08.099Z,102700.55
2019-04-11T08:53:55.467Z,102709.41
2019-04-11T08:56:25.102Z,102712.94
2019-04-11T08:59:30.886Z,102706.44
2019-04-11T09:02:00.473Z,102711.75
2019-04-11T09:04:50.311Z,102714.36
2019-04-11T09:07:25.410Z,102713.35
2019-04-11T09:10:26.213Z,102715.31
2019-04-11T09:13:20.620Z,102714.50
2019-04-11T09:16:07.626Z,102707.87
2019-04-11T09:18:38.407Z,102713.47
2019-04-11T09:21:39.016Z,102707.87
2019-04-11T09:24:18.686Z,102710.25
2019-04-11T09:27:06.588Z,102705.38
2019-04-11T09:29:39.927Z,102703.75
2019-04-11T09:32:28.493Z,102701.38
2019-04-11T09:35:03.650Z,102703.83
2019-04-11T09:37:36.010Z,102706.25
2019-04-11T09:40:26.334Z,102709.09
2019-04-11T09:43:24.162Z,102717.20
2019-04-11T09:46:21.961Z,102721.87
2019-04-11T09:49:10.641Z,102725.45
2019-04-11T09:52:00.470Z,102721.55
2019-04-11T09:54:54.834Z,102724.97
2019-04-11T09:57:44.130Z,102720.84
2019-04-11T10:00:47.961Z,102722.33
2019-04-11T10:03:26.168Z,102718.30
2019-04-11T10:06:21.693Z,102718.37
2019-04-11T10:08:55.473Z,102719.78
2019-04-11T10:11:59.040Z,102716.05
2019-04-11T10:14:31.604Z,102718.91
2019-04-11T10:17:22.312Z,102719.74
2019-04-11T10:19:56.137Z,102721.53
2019-04-11T10:22:48.098Z,102714.35
2019-04-11T10:25:23.847Z,102713.17
2019-04-11T10:28:31.928Z,102704.10
2019-04-11T10:31:10.587Z,102704.34
2019-04-11T10:33:57.874Z,102702.42
2019-04-11T10:36:45.418Z,102716.20
2019-04-11T10:39:33.254Z,102724.52
2019-04-11T10:42:08.658Z,102728.52
2019-04-11T10:44:56.300Z,102734.21
2019-04-11T10:47:27.472Z,102740.24
2019-04-11T10:50:15.457Z,102742.14
2019-04-11T10:52:48.844Z,102741.55
2019-04-11T10:55:35.756Z,102748.91
2019-04-11T10:58:12.946Z,102746.05
2019-04-11T11:00:59.775Z,102751.91
2019-04-11T11:03:38.286Z,102744.37
2019-04-11T11:06:07.680Z,102749.00
2019-04-11T11:08:55.568Z,102748.28
2019-04-11T11:11:28.838Z,102742.08
2019-04-11T11:14:24.774Z,102747.05
2019-04-11T11:17:46.111Z,102741.75
2019-04-11T11:20:26.329Z,102744.11
2019-04-11T11:23:10.151Z,102741.40
2019-04-11T11:25:48.605Z,102731.16
2019-04-11T11:28:18.187Z,102731.97
2019-04-11T11:31:11.928Z,102729.38
2019-04-11T11:33:42.745Z,102729.41
2019-04-11T11:36:39.898Z,102735.80
2019-04-11T11:39:22.843Z,102736.11
2019-04-11T11:42:23.136Z,102744.16
2019-04-11T11:44:55.331Z,102744.28
2019-04-11T11:47:44.916Z,102740.02
2019-04-11T11:50:18.775Z,102743.40
2019-04-11T11:53:25.859Z,102748.11
2019-04-11T11:55:55.727Z,102746.36
2019-04-11T11:58:51.870Z,102751.16
2019-04-11T12:01:17.899Z,102753.81
2019-04-11T12:04:12.839Z,102751.34
2019-04-11T12:06:43.035Z,102747.83
2019-04-11T12:09:30.814Z,102753.11
2019-04-11T12:12:04.875Z,102752.77
2019-04-11T12:14:43.364Z,102749.53
2019-04-11T12:17:33.589Z,102745.22
2019-04-11T12:20:12.594Z,102747.09
2019-04-11T12:22:42.240Z,102746.58
2019-04-11T12:25:35.110Z,102737.93
2019-04-11T12:28:29.974Z,102744.75
2019-04-11T12:31:03.846Z,102742.89
2019-04-11T12:33:49.983Z,102743.64
2019-04-11T12:36:22.999Z,102739.53
2019-04-11T12:39:14.568Z,102738.21
2019-04-11T12:41:55.376Z,102739.73
2019-04-11T12:44:49.575Z,102737.62
2019-04-11T12:47:24.602Z,102743.03
2019-04-11T12:50:09.249Z,102742.05
2019-04-11T12:52:41.461Z,102744.66
2019-04-11T12:55:14.406Z,102751.00
2019-04-11T12:58:02.620Z,102756.83
2019-04-11T13:00:41.857Z,102754.97
2019-04-11T13:03:28.930Z,102755.48
2019-04-11T13:06:02.312Z,102755.08
2019-04-11T13:08:50.457Z,102759.08
2019-04-11T13:11:20.318Z,102766.80
2019-04-11T13:14:17.359Z,102758.80
2019-04-11T13:16:48.829Z,102767.52
2019-04-11T13:19:41.641Z,102758.98
2019-04-11T13:22:16.990Z,102763.80
2019-04-11T13:25:05.805Z,102760.84
2019-04-11T13:27:42.558Z,102769.55
2019-04-11T13:30:49.687Z,102761.44
2019-04-11T13:33:21.905Z,102764.12
2019-04-11T13:36:07.050Z,102765.97
2019-04-11T13:38:44.526Z,102771.45
2019-04-11T13:41:50.916Z,102764.36
2019-04-11T13:44:26.901Z,102773.27
2019-04-11T13:47:15.593Z,102770.70
2019-04-11T13:49:49.936Z,102767.38
2019-04-11T13:52:38.122Z,102762.09
2019-04-11T13:55:14.921Z,102761.63
2019-04-11T13:58:04.788Z,102758.73
2019-04-11T14:00:59.491Z,102752.79
2019-04-11T14:03:48.458Z,102755.41
2019-04-11T14:06:24.506Z,102754.30
2019-04-11T14:09:24.751Z,102749.42
2019-04-11T14:11:55.872Z,102751.42
2019-04-11T14:14:35.777Z,102748.03
2019-04-11T14:17:26.737Z,102751.00
2019-04-11T14:20:11.883Z,102750.50
2019-04-11T14:23:14.715Z,102756.11
2019-04-11T14:26:02.230Z,102755.03
2019-04-11T14:28:38.170Z,102758.42
2019-04-11T14:31:37.581Z,102755.80
2019-04-11T14:34:26.040Z,102757.39
2019-04-11T14:37:00.674Z,102762.61
2019-04-11T14:39:32.670Z,102759.58
2019-04-11T14:42:19.804Z,102760.80
2019-04-11T14:44:50.175Z,102767.95
2019-04-11T14:47:47.209Z,102764.20
2019-04-11T14:50:17.728Z,102767.94
2019-04-11T14:52:54.808Z,102760.70
2019-04-11T14:55:25.519Z,102771.14
2019-04-11T14:58:12.465Z,102768.98
2019-04-11T15:00:43.196Z,102768.87
2019-04-11T15:03:44.271Z,102775.13
2019-04-11T15:06:31.465Z,102770.46
2019-04-11T15:09:31.667Z,102774.23
2019-04-11T15:12:26.078Z,102776.69
2019-04-11T15:15:23.357Z,102778.39
2019-04-11T15:18:01.431Z,102776.59
2019-04-11T15:21:01.883Z,102779.98
2019-04-11T15:23:43.144Z,102775.43
2019-04-11T15:26:30.217Z,102776.06
2019-04-11T15:29:24.433Z,102778.39
2019-04-11T15:32:14.275Z,102778.52
2019-04-11T15:34:49.259Z,102784.36
2019-04-11T15:37:40.242Z,102773.58
2019-04-11T15:40:28.935Z,102772.43
2019-04-11T15:43:17.071Z,102774.66
2019-04-11T15:45:49.397Z,102772.73
2019-04-11T15:48:36.073Z,102772.98
2019-04-11T15:51:39.538Z,102772.34
2019-04-11T15:54:27.710Z,102772.98
2019-04-11T15:57:20.892Z,102774.91
2019-04-11T16:00:15.313Z,102776.85
2019-04-11T16:02:52.119Z,102654.06
2019-04-11T16:05:49.740Z,102768.68
2019-04-11T16:08:43.275Z,102776.98
2019-04-11T16:11:34.386Z,102775.80
2019-04-11T16:14:20.951Z,102772.94
2019-04-11T16:17:15.164Z,102779.30
2019-04-11T16:20:18.847Z,102780.36
2019-04-11T16:23:10.184Z,102775.94
2019-04-11T16:25:41.137Z,102784.03
2019-04-11T16:28:38.170Z,102773.13
2019-04-11T16:31:10.409Z,102772.72
2019-04-11T16:33:58.915Z,102776.17
2019-04-11T16:36:50.382Z,102772.58
2019-04-11T16:39:54.729Z,102781.95
2019-04-11T16:42:34.784Z,102781.03
2019-04-11T16:45:25.130Z,102789.69
2019-04-11T16:48:02.755Z,102788.25
2019-04-11T16:50:32.412Z,102780.51
2019-04-11T16:53:01.716Z,102776.37
2019-04-11T16:55:31.285Z,102776.88
2019-04-11T16:58:00.618Z,102778.69
2019-04-11T17:00:30.231Z,102780.11
2019-04-11T17:02:59.847Z,102779.56
2019-04-11T17:05:29.153Z,102783.20
2019-04-11T17:08:17.124Z,102781.12
2019-04-11T17:11:00.586Z,102789.91
2019-04-11T17:13:32.317Z,102788.30
2019-04-11T17:16:01.693Z,102795.63
2019-04-11T17:18:33.953Z,102791.67
2019-04-11T17:21:02.113Z,102798.99
2019-04-11T17:23:31.333Z,102799.05
2019-04-11T17:26:00.782Z,102803.49
2019-04-11T17:28:30.030Z,102806.82
2019-04-11T17:30:59.357Z,102809.05
2019-04-11T17:33:28.900Z,102810.41
2019-04-11T17:36:02.104Z,102815.64
2019-04-11T17:38:29.604Z,102812.97
2019-04-11T17:40:58.860Z,102812.78
2019-04-11T17:43:28.107Z,102814.66
2019-04-11T17:45:57.737Z,102813.55
2019-04-11T17:48:27.229Z,102812.83
2019-04-11T17:50:56.818Z,102815.75
2019-04-11T17:53:26.132Z,102810.91
2019-04-11T17:55:55.319Z,102819.37
2019-04-11T17:58:26.829Z,102818.79
2019-04-11T18:01:00.429Z,102824.28
2019-04-11T18:03:29.498Z,102824.98
2019-04-11T18:05:58.699Z,102826.98
2019-04-11T18:08:28.027Z,102832.33
2019-04-11T18:10:57.268Z,102824.98
2019-04-11T18:13:30.505Z,102828.49
2019-04-11T18:16:00.895Z,102831.23
2019-04-11T18:18:28.844Z,102836.48
2019-04-11T18:20:58.191Z,102834.22
2019-04-11T18:23:27.392Z,102839.84
2019-04-11T18:25:56.792Z,102844.56
2019-04-11T18:28:26.143Z,102843.87
2019-04-11T18:30:55.355Z,102846.53
2019-04-11T18:33:24.748Z,102842.59
2019-04-11T18:35:54.134Z,102846.53
2019-04-11T18:38:23.373Z,102845.70
2019-04-11T18:40:52.766Z,102848.73
2019-04-11T18:43:22.255Z,102853.30
2019-04-11T18:45:51.513Z,102852.68
2019-04-11T18:48:20.884Z,102851.16
2019-04-11T18:50:50.862Z,102850.92
2019-04-11T18:53:21.337Z,102856.16
2019-04-11T18:55:50.615Z,102851.66
2019-04-11T18:58:19.971Z,102657.37
2019-04-11T19:00:49.201Z,102852.63
2019-04-11T19:03:18.627Z,102851.47
2019-04-11T19:05:47.939Z,102852.67
2019-04-11T19:08:17.259Z,102856.98
2019-04-11T19:10:46.697Z,102853.56
2019-04-11T19:13:17.026Z,102860.11
2019-04-11T19:15:46.840Z,102850.45
2019-04-11T19:18:17.087Z,102860.45
2019-04-11T19:20:49.993Z,102856.11
2019-04-11T19:23:17.687Z,102732.08
2019-04-11T19:25:47.021Z,102864.50
2019-04-11T19:28:16.747Z,102871.02
2019-04-11T19:30:46.659Z,102870.53
2019-04-11T19:33:15.955Z,102869.30
2019-04-11T19:35:45.537Z,102864.96
2019-04-11T19:38:32.484Z,102869.80
2019-04-11T19:41:01.981Z,102868.41
2019-04-11T19:43:31.403Z,102863.69
2019-04-11T19:46:00.695Z,102867.23
2019-04-11T19:48:29.998Z,102866.00
2019-04-11T19:50:59.527Z,102872.49
2019-04-11T19:53:32.825Z,102869.66
2019-04-11T19:56:17.297Z,102876.14
2019-04-11T19:58:46.744Z,102875.83
2019-04-11T20:01:16.007Z,102741.20
2019-04-11T20:03:45.601Z,102877.11
2019-04-11T20:06:14.837Z,102877.33
2019-04-11T20:08:44.074Z,102879.15
2019-04-11T20:11:13.733Z,102883.39
2019-04-11T20:13:42.988Z,102878.45
2019-04-11T20:16:13.176Z,102888.05
2019-04-11T20:18:50.987Z,102892.34
2019-04-11T20:21:13.845Z,102886.55
2019-04-11T20:23:43.041Z,102888.25
2019-04-11T20:26:12.484Z,102889.00
2019-04-11T20:28:41.752Z,102863.08
2019-04-11T20:31:10.957Z,102888.63
2019-04-11T20:33:40.239Z,102889.75
2019-04-11T20:36:11.288Z,102891.79
2019-04-11T20:38:41.027Z,102890.17
2019-04-11T20:41:10.346Z,102887.44
2019-04-11T20:43:39.676Z,102886.95
2019-04-11T20:46:09.190Z,102893.38
2019-04-11T20:48:38.560Z,102891.02
2019-04-11T20:51:08.167Z,102889.98
2019-04-11T20:53:37.793Z,102891.86
2019-04-11T20:56:09.720Z,102887.13
2019-04-11T20:58:39.665Z,102887.34
2019-04-11T21:01:09.504Z,102888.09
2019-04-11T21:03:38.721Z,102889.05
2019-04-11T21:06:08.165Z,102886.89
2019-04-11T21:08:37.379Z,102897.72
2019-04-11T21:11:06.578Z,102889.67
2019-04-11T21:13:38.135Z,102891.91
2019-04-11T21:16:06.881Z,102887.55
2019-04-11T21:18:36.070Z,102891.09
2019-04-11T21:21:05.495Z,102893.49
2019-04-11T21:23:34.686Z,102894.98
2019-04-11T21:26:03.923Z,102893.91
2019-04-11T21:28:33.314Z,102895.19
2019-04-11T21:31:02.525Z,102892.66
2019-04-11T21:33:34.210Z,102897.64
2019-04-11T21:36:02.936Z,102896.02
2019-04-11T21:38:32.138Z,102898.47
2019-04-11T21:41:01.335Z,102902.73
2019-04-11T21:43:30.731Z,102897.45
2019-04-11T21:45:59.937Z,102900.06
2019-04-11T21:48:29.249Z,102904.67
2019-04-11T21:50:58.628Z,102909.64
2019-04-11T21:53:36.467Z,102901.97
2019-04-11T21:55:58.795Z,102904.53
2019-04-11T21:58:28.267Z,102901.63
2019-04-11T22:01:05.182Z,102908.97
2019-04-11T22:03:34.649Z,102905.31
2019-04-11T22:06:04.069Z,102907.34
2019-04-11T22:08:34.447Z,102911.78
2019-04-11T22:11:04.696Z,102911.81
2019-04-11T22:13:33.924Z,102917.36
2019-04-11T22:16:03.124Z,102919.22
2019-04-11T22:18:32.610Z,102918.88
2019-04-11T22:21:01.980Z,102921.27
2019-04-11T22:23:31.702Z,102925.16
2019-04-11T22:26:01.114Z,102931.79
2019-04-11T22:28:30.439Z,102930.84
2019-04-11T22:30:59.908Z,102935.08
2019-04-11T22:33:39.366Z,102933.81
2019-04-11T22:36:08.751Z,102935.13
2019-04-11T22:38:37.956Z,102937.16
2019-04-11T22:41:07.455Z,102941.58
2019-04-11T22:43:38.118Z,102936.08
2019-04-11T22:46:08.514Z,102937.55
2019-04-11T22:48:39.065Z,102940.88
2019-04-11T22:51:11.244Z,102938.13
2019-04-11T22:53:43.312Z,102945.47
2019-04-11T22:56:12.385Z,102944.58
2019-04-11T22:58:43.815Z,102943.86
2019-04-11T23:01:13.968Z,102953.42
2019-04-11T23:04:10.172Z,102949.20
2019-04-11T23:06:39.415Z,102943.52
2019-04-11T23:09:08.810Z,102950.51
2019-04-11T23:11:38.175Z,102956.22
2019-04-11T23:14:07.385Z,102952.93
2019-04-11T23:16:36.615Z,102951.87
2019-04-11T23:19:06.279Z,102957.03
2019-04-11T23:21:35.473Z,102953.74
2019-04-11T23:24:11.793Z,102958.70
2019-04-11T23:26:36.129Z,102959.64
2019-04-11T23:29:05.315Z,102958.92
2019-04-11T23:31:34.518Z,102967.56
2019-04-11T23:34:03.921Z,102963.03
2019-04-11T23:36:33.116Z,102967.07
2019-04-11T23:39:02.315Z,102967.09
2019-04-11T23:41:31.719Z,102965.83
2019-04-11T23:44:00.924Z,102965.67
2019-04-11T23:46:30.128Z,102971.02
2019-04-11T23:48:59.521Z,102971.40
2019-04-11T23:51:29.020Z,102967.75
2019-04-11T23:53:59.708Z,102966.66
2019-04-11T23:56:30.702Z,102964.67
2019-04-11T23:59:02.124Z,102966.35
